This demonstration page uses our WeatherBlox Daily Observations layout. Learn more.

38.89511, -77.03637

Hourly Observations for August 19, 2015

Temp ( °F °C ) Dew Point ( °F °C ) Humidity (%) Winds ( mph kmh ) Pressure ( in mb ) Visibility ( mi km ) Precip ( " mm )
12:52 am 00:52 Cloudy 79 26 73 23 84 84 S 8 13 30 1016 10 16.09344 0 0
1:52 am 01:52 Cloudy 79 26 72 22 79 79 S 8 13 30 1016 10 16.09344 0 0
2:52 am 02:52 Cloudy 79 26 72 22 79 79 S 9 15 30 1016 10 16.09344 0 0
3:52 am 03:52 Cloudy 79 26 72 22 79 79 S 10 17 29.97 1015 10 16.09344 0 0
4:52 am 04:52 Cloudy 77 25 72 22 83 83 S 9 15 29.97 1015 10 16.09344 0 0
5:52 am 05:52 Mostly Cloudy 77 25 72 22 83 83 S 7 11 29.97 1015 10 16.09344 0 0
6:52 am 06:52 Mostly Cloudy 77 25 72 22 83 83 S 8 13 30 1016 10 16.09344 0 0
7:01 am 07:01 Cloudy 77 25 72 22 83 83 S 9 15 29.97 1015 10 16.09344 0 0
7:52 am 07:52 Cloudy 77 25 72 22 83 83 S 9 15 30 1016 10 16.09344 0 0
8:52 am 08:52 Cloudy 79 26 72 22 79 79 S 8 13 30 1016 10 16.09344 0 0
9:52 am 09:52 Cloudy 81 27 72 22 74 74 S 8 13 30 1016 10 16.09344 0 0
10:42 am 10:42 Cloudy 81 27 72 22 74 74 SSW 8 13 30 1016 9 14.484096 0 0
10:52 am 10:52 Cloudy 82 28 72 22 70 70 S 7 11 30 1016 10 16.09344 0 0
11:52 am 11:52 Cloudy 84 29 72 22 66 66 S 10 17 30 1016 10 16.09344 0 0
12:14 pm 12:14 Cloudy 86 30 72 22 62 62 S 13 20 30 1016 10 16.09344 0 0
12:52 pm 12:52 Cloudy 88 31 72 22 59 59 S 13 20 30 1016 10 16.09344 0 0
1:52 pm 13:52 Partly Cloudy 90 32 70 21 52 52 S 15 24 29.97 1015 10 16.09344 0 0
2:52 pm 14:52 Partly Cloudy 90 32 70 21 52 52 S 12 19 29.97 1015 10 16.09344 0 0
3:52 pm 15:52 Mostly Cloudy 91 33 68 20 46 46 S 14 22 29.94 1014 10 16.09344 0 0
4:52 pm 16:52 Partly Cloudy 86 30 68 20 55 55 S 13 20 29.94 1014 10 16.09344 0 0
5:52 pm 17:52 Mostly Cloudy 88 31 72 22 59 59 S 10 17 29.94 1014 10 16.09344 0 0
6:52 pm 18:52 Mostly Cloudy 84 29 72 22 66 66 SE 9 15 29.94 1014 10 16.09344 0 0
7:52 pm 19:52 Mostly Cloudy 82 28 70 21 66 66 SSE 9 15 29.94 1014 10 16.09344 0 0
8:52 pm 20:52 Mostly Cloudy 82 28 70 21 66 66 SSE 12 19 29.97 1015 10 16.09344 0 0
9:52 pm 21:52 Mostly Cloudy 81 27 72 22 74 74 SSE 9 15 29.97 1015 10 16.09344 0 0
10:52 pm 22:52 Mostly Cloudy 81 27 72 22 74 74 S 9 15 29.97 1015 10 16.09344 0 0
11:52 pm 23:52 Mostly Cloudy 81 27 73 23 79 79 SSE 6 9 29.97 1015 10 16.09344 0 0

Powered by AerisWeather